Time;durP1;ratioP1;P1;durP2;ratioP2;P2;SDS_P1;SDS_P2;PMS_P1;PMS_P2;Temp;Humidity;BMP_temperature;BMP_pressure;BME280_temperature;BME280_humidity;BME280_pressure;Samples;Min_cycle;Max_cycle;Signal;HPM_P1;HPM_P2
2022/02/01 00:02:15;;;;;;;0.50;0.50;;;;;;;;;;5053232;28;20174;-61
2022/02/01 00:09:45;;;;;;;0.50;0.50;;;;;;;;;;5053370;28;20854;-63
2022/02/01 00:19:46;;;;;;;0.57;0.57;;;;;;;;;;5052954;28;20176;-63
2022/02/01 00:33:40;;;;;;;0.50;0.50;;;;;;;;;;5052751;28;20207;-61
2022/02/01 00:36:32;;;;;;;0.50;0.50;;;;;;;;;;5052493;28;20164;-62
2022/02/01 00:39:01;;;;;;;0.70;0.70;;;;;;;;;;5051871;28;20270;-64
2022/02/01 00:41:31;;;;;;;0.40;0.40;;;;;;;;;;5052409;28;20183;-63
2022/02/01 00:43:57;;;;;;;0.57;0.57;;;;;;;;;;5052508;28;20169;-64
2022/02/01 00:46:23;;;;;;;0.60;0.60;;;;;;;;;;5052242;28;20220;-64
2022/02/01 00:48:50;;;;;;;0.50;0.50;;;;;;;;;;5052377;28;20176;-61
2022/02/01 00:51:16;;;;;;;0.60;0.60;;;;;;;;;;5052213;28;20219;-62
2022/02/01 00:53:42;;;;;;;0.50;0.50;;;;;;;;;;5052459;28;20172;-61
2022/02/01 00:56:09;;;;;;;0.60;0.60;;;;;;;;;;5052223;28;20253;-61
2022/02/01 00:58:35;;;;;;;0.60;0.60;;;;;;;;;;5052296;28;20203;-63
2022/02/01 01:01:01;;;;;;;0.50;0.50;;;;;;;;;;5051864;28;20215;-63
2022/02/01 01:03:27;;;;;;;0.50;0.50;;;;;;;;;;5052208;28;20631;-63
2022/02/01 01:05:53;;;;;;;0.50;0.50;;;;;;;;;;5051981;28;20924;-63
2022/02/01 01:08:20;;;;;;;0.50;0.50;;;;;;;;;;5052066;28;20418;-63
2022/02/01 01:10:46;;;;;;;0.45;0.45;;;;;;;;;;5051771;28;20265;-61
2022/02/01 01:16:07;;;;;;;0.50;0.50;;;;;;;;;;5051785;28;20175;-61
2022/02/01 01:53:44;;;;;;;0.50;0.50;;;;;;;;;;5051840;28;20196;-61
2022/02/01 01:56:10;;;;;;;0.60;0.60;;;;;;;;;;5051359;28;20201;-61
2022/02/01 01:58:36;;;;;;;0.60;0.60;;;;;;;;;;5051455;28;20225;-62
2022/02/01 02:01:11;;;;;;;0.60;0.60;;;;;;;;;;5051219;28;20419;-63
2022/02/01 02:03:38;;;;;;;0.50;0.50;;;;;;;;;;5051410;28;20436;-63
2022/02/01 02:06:04;;;;;;;0.60;0.60;;;;;;;;;;5051150;28;20188;-63
2022/02/01 02:08:30;;;;;;;0.60;0.60;;;;;;;;;;5051563;28;20188;-63
2022/02/01 02:15:58;;;;;;;0.60;0.60;;;;;;;;;;5051326;28;20182;-61
2022/02/01 02:18:24;;;;;;;0.50;0.50;;;;;;;;;;5051199;28;20566;-61
2022/02/01 02:20:51;;;;;;;0.50;0.50;;;;;;;;;;5051010;28;20524;-61
2022/02/01 02:23:17;;;;;;;0.50;0.50;;;;;;;;;;5051239;28;20685;-61
2022/02/01 02:25:44;;;;;;;0.60;0.60;;;;;;;;;;5051160;28;20186;-61
2022/02/01 02:28:13;;;;;;;0.50;0.50;;;;;;;;;;5051038;28;20680;-61
2022/02/01 02:30:40;;;;;;;0.55;0.55;;;;;;;;;;5050899;28;20647;-61
2022/02/01 02:33:08;;;;;;;0.60;0.60;;;;;;;;;;5051120;28;20184;-63
2022/02/01 02:35:38;;;;;;;0.50;0.50;;;;;;;;;;5051229;28;20545;-63
2022/02/01 02:38:11;;;;;;;0.60;0.60;;;;;;;;;;5051059;28;20213;-63
2022/02/01 02:46:00;;;;;;;0.50;0.50;;;;;;;;;;5051259;28;20178;-61
2022/02/01 02:48:26;;;;;;;0.50;0.50;;;;;;;;;;5050684;28;20610;-61
2022/02/01 02:50:52;;;;;;;0.50;0.50;;;;;;;;;;5054388;28;20411;-61
2022/02/01 02:53:18;;;;;;;0.50;0.50;;;;;;;;;;5054629;28;20550;-61
2022/02/01 02:55:44;;;;;;;0.50;0.50;;;;;;;;;;5054868;28;20177;-61
2022/02/01 02:58:10;;;;;;;0.50;0.50;;;;;;;;;;5054290;28;20502;-61
2022/02/01 03:00:36;;;;;;;0.50;0.50;;;;;;;;;;5054281;28;20786;-62
2022/02/01 03:03:02;;;;;;;0.50;0.50;;;;;;;;;;5054361;28;20664;-61
2022/02/01 03:05:28;;;;;;;0.50;0.50;;;;;;;;;;5054373;28;20204;-61
2022/02/01 03:07:54;;;;;;;0.50;0.50;;;;;;;;;;5055266;28;20742;-61
2022/02/01 03:10:20;;;;;;;0.50;0.50;;;;;;;;;;5053886;28;20180;-61
2022/02/01 03:13:09;;;;;;;0.50;0.50;;;;;;;;;;5054197;28;20408;-61
2022/02/01 03:20:44;;;;;;;0.60;0.60;;;;;;;;;;5054236;28;20186;-63
2022/02/01 03:23:10;;;;;;;0.60;0.60;;;;;;;;;;5054024;28;20226;-63
2022/02/01 03:25:36;;;;;;;0.60;0.60;;;;;;;;;;5053926;28;20164;-63
2022/02/01 03:28:02;;;;;;;0.50;0.50;;;;;;;;;;5053791;28;20607;-62
2022/02/01 03:30:27;;;;;;;0.60;0.60;;;;;;;;;;5053734;28;20435;-61
2022/02/01 03:32:53;;;;;;;0.70;0.70;;;;;;;;;;5053914;28;20560;-61
2022/02/01 03:35:19;;;;;;;0.60;0.60;;;;;;;;;;5053854;28;20418;-61
2022/02/01 03:37:45;;;;;;;0.60;0.60;;;;;;;;;;5053636;28;21061;-61
2022/02/01 03:40:16;;;;;;;0.50;0.50;;;;;;;;;;5053430;28;20257;-61
2022/02/01 03:42:42;;;;;;;0.50;0.50;;;;;;;;;;5053632;28;20786;-60
2022/02/01 03:45:09;;;;;;;0.55;0.55;;;;;;;;;;5053879;28;20184;-60
2022/02/01 03:47:35;;;;;;;0.50;0.50;;;;;;;;;;5053690;28;20224;-61
2022/02/01 03:50:01;;;;;;;0.50;0.50;;;;;;;;;;5053893;28;20191;-61
2022/02/01 03:52:27;;;;;;;0.60;0.60;;;;;;;;;;5053335;28;20233;-62
2022/02/01 03:54:53;;;;;;;0.50;0.50;;;;;;;;;;5053464;28;20180;-62
2022/02/01 03:57:19;;;;;;;0.60;0.60;;;;;;;;;;5052926;28;20273;-61
2022/02/01 03:59:46;;;;;;;0.60;0.60;;;;;;;;;;5053225;28;20438;-62
2022/02/01 04:02:12;;;;;;;0.52;0.52;;;;;;;;;;5052408;28;20168;-61
2022/02/01 04:04:38;;;;;;;0.50;0.50;;;;;;;;;;5053258;28;20528;-62
2022/02/01 04:07:05;;;;;;;0.60;0.60;;;;;;;;;;5052954;28;20234;-62
2022/02/01 04:09:32;;;;;;;0.50;0.50;;;;;;;;;;5053098;28;20251;-61
2022/02/01 04:11:59;;;;;;;0.60;0.60;;;;;;;;;;5053000;28;20229;-62
2022/02/01 04:14:28;;;;;;;0.60;0.60;;;;;;;;;;5053299;28;20183;-61
2022/02/01 04:16:56;;;;;;;0.70;0.70;;;;;;;;;;5052946;28;20729;-62
2022/02/01 04:19:22;;;;;;;0.60;0.60;;;;;;;;;;5053095;28;20179;-61
2022/02/01 04:21:58;;;;;;;0.50;0.50;;;;;;;;;;5052745;28;20644;-61
2022/02/01 04:24:24;;;;;;;0.50;0.50;;;;;;;;;;5052845;28;20252;-63
2022/02/01 04:26:50;;;;;;;0.60;0.60;;;;;;;;;;5052743;28;20752;-64
2022/02/01 04:29:16;;;;;;;0.60;0.60;;;;;;;;;;5052903;28;20404;-61
2022/02/01 04:31:42;;;;;;;0.50;0.50;;;;;;;;;;5052533;28;20173;-61
2022/02/01 04:34:08;;;;;;;0.50;0.50;;;;;;;;;;5052669;28;20807;-62
2022/02/01 04:36:34;;;;;;;0.50;0.50;;;;;;;;;;5052430;28;20426;-61
2022/02/01 04:39:00;;;;;;;0.60;0.60;;;;;;;;;;5052477;28;20485;-61
2022/02/01 04:41:27;;;;;;;0.60;0.60;;;;;;;;;;5052311;28;20174;-61
2022/02/01 04:43:54;;;;;;;0.60;0.60;;;;;;;;;;5052727;28;20802;-61
2022/02/01 04:46:20;;;;;;;0.60;0.60;;;;;;;;;;5052373;28;20288;-62
2022/02/01 04:48:47;;;;;;;0.60;0.60;;;;;;;;;;5052395;28;20168;-61
2022/02/01 04:51:13;;;;;;;0.60;0.60;;;;;;;;;;5052196;28;20164;-63
2022/02/01 04:53:39;;;;;;;0.60;0.60;;;;;;;;;;5052213;28;20543;-64
2022/02/01 04:56:05;;;;;;;0.50;0.50;;;;;;;;;;5052179;28;20176;-64
2022/02/01 04:58:31;;;;;;;0.50;0.50;;;;;;;;;;5052195;28;20552;-63
2022/02/01 05:00:57;;;;;;;0.50;0.50;;;;;;;;;;5051981;28;20257;-64
2022/02/01 05:03:23;;;;;;;0.50;0.50;;;;;;;;;;5052191;28;20408;-63
2022/02/01 05:05:50;;;;;;;0.50;0.50;;;;;;;;;;5051982;28;20178;-63
2022/02/01 05:08:16;;;;;;;0.60;0.60;;;;;;;;;;5052167;28;20790;-63
2022/02/01 05:10:42;;;;;;;0.50;0.50;;;;;;;;;;5051807;28;20177;-63
2022/02/01 05:15:52;;;;;;;0.50;0.50;;;;;;;;;;5052078;28;20638;-61
2022/02/01 05:18:25;;;;;;;0.60;0.60;;;;;;;;;;5051777;28;20552;-63
2022/02/01 05:21:04;;;;;;;0.50;0.50;;;;;;;;;;5034105;28;20647;-61
2022/02/01 05:23:30;;;;;;;0.60;0.60;;;;;;;;;;5051805;28;20179;-63
2022/02/01 05:25:57;;;;;;;0.50;0.50;;;;;;;;;;5051720;28;20169;-63
2022/02/01 05:28:23;;;;;;;0.50;0.50;;;;;;;;;;5051711;28;20179;-63
2022/02/01 05:30:49;;;;;;;0.60;0.60;;;;;;;;;;5051480;28;20174;-63
2022/02/01 05:33:15;;;;;;;0.60;0.60;;;;;;;;;;5051667;28;20422;-64
2022/02/01 05:35:41;;;;;;;0.60;0.60;;;;;;;;;;5051744;28;20164;-64
2022/02/01 05:38:07;;;;;;;0.50;0.50;;;;;;;;;;5051415;28;20460;-63
2022/02/01 05:40:33;;;;;;;0.50;0.50;;;;;;;;;;5051363;28;20924;-64
2022/02/01 05:43:03;;;;;;;0.50;0.50;;;;;;;;;;5051565;28;20460;-63
2022/02/01 05:45:29;;;;;;;0.60;0.60;;;;;;;;;;5051523;28;20164;-64
2022/02/01 05:47:55;;;;;;;0.60;0.60;;;;;;;;;;5051510;28;20227;-63
2022/02/01 05:50:21;;;;;;;0.60;0.60;;;;;;;;;;5051316;28;20173;-64
2022/02/01 05:52:48;;;;;;;0.50;0.50;;;;;;;;;;5051448;28;20694;-63
2022/02/01 05:55:15;;;;;;;0.60;0.60;;;;;;;;;;5051450;28;20172;-61
2022/02/01 05:57:43;;;;;;;0.50;0.50;;;;;;;;;;5051287;28;20236;-63
2022/02/01 06:00:09;;;;;;;0.50;0.50;;;;;;;;;;5051148;28;20644;-62
2022/02/01 06:02:35;;;;;;;0.50;0.50;;;;;;;;;;5052325;28;20627;-62
2022/02/01 06:05:01;;;;;;;0.53;0.53;;;;;;;;;;5051432;28;20185;-61
2022/02/01 06:07:27;;;;;;;0.60;0.60;;;;;;;;;;5051077;28;20450;-61
2022/02/01 06:09:53;;;;;;;0.50;0.50;;;;;;;;;;5033455;28;20514;-61
2022/02/01 06:12:19;;;;;;;0.60;0.60;;;;;;;;;;5051132;28;20448;-61
2022/02/01 06:14:45;;;;;;;0.53;0.53;;;;;;;;;;5051108;28;20415;-61
2022/02/01 06:17:11;;;;;;;0.60;0.60;;;;;;;;;;5051087;28;20489;-62
2022/02/01 06:19:37;;;;;;;0.60;0.60;;;;;;;;;;5051208;28;20410;-62
2022/02/01 06:22:04;;;;;;;0.70;0.70;;;;;;;;;;5050933;28;20395;-62
2022/02/01 06:24:31;;;;;;;0.60;0.60;;;;;;;;;;5053143;28;20251;-62
2022/02/01 06:26:57;;;;;;;0.60;0.60;;;;;;;;;;5055009;28;20191;-62
2022/02/01 06:29:23;;;;;;;0.60;0.60;;;;;;;;;;5054973;28;20199;-62
2022/02/01 06:31:49;;;;;;;0.60;0.60;;;;;;;;;;5036806;28;20460;-62
2022/02/01 06:34:15;;;;;;;0.60;0.60;;;;;;;;;;5054916;28;20413;-62
2022/02/01 06:36:41;;;;;;;0.60;0.60;;;;;;;;;;5054664;28;20473;-62
2022/02/01 06:39:07;;;;;;;0.60;0.60;;;;;;;;;;5054887;28;20416;-62
2022/02/01 06:41:34;;;;;;;0.50;0.50;;;;;;;;;;5054591;28;20206;-62
2022/02/01 06:44:02;;;;;;;0.60;0.60;;;;;;;;;;5054705;28;20172;-62
2022/02/01 06:46:28;;;;;;;0.60;0.60;;;;;;;;;;5054764;28;20262;-62
2022/02/01 06:48:54;;;;;;;0.60;0.60;;;;;;;;;;5054701;28;20254;-62
2022/02/01 06:51:20;;;;;;;0.50;0.50;;;;;;;;;;5054248;28;20447;-61
2022/02/01 06:53:46;;;;;;;0.70;0.70;;;;;;;;;;5055097;28;20403;-61
2022/02/01 06:56:19;;;;;;;0.50;0.50;;;;;;;;;;5054579;28;20270;-62
2022/02/01 06:58:46;;;;;;;0.65;0.65;;;;;;;;;;5054757;28;20860;-62
2022/02/01 07:01:12;;;;;;;0.60;0.60;;;;;;;;;;5054284;28;20539;-62
2022/02/01 07:03:38;;;;;;;0.60;0.60;;;;;;;;;;5054385;28;20166;-62
2022/02/01 07:06:10;;;;;;;0.60;0.60;;;;;;;;;;5054003;28;20528;-62
2022/02/01 07:08:36;;;;;;;0.50;0.50;;;;;;;;;;5053165;28;20180;-62
2022/02/01 07:11:02;;;;;;;0.70;0.70;;;;;;;;;;5052756;28;20651;-62
2022/02/01 07:13:29;;;;;;;0.50;0.50;;;;;;;;;;5053107;28;20410;-62
2022/02/01 07:15:55;;;;;;;0.60;0.60;;;;;;;;;;5052904;28;20175;-62
2022/02/01 07:18:21;;;;;;;0.60;0.60;;;;;;;;;;5053725;28;20296;-62
2022/02/01 07:20:47;;;;;;;0.60;0.60;;;;;;;;;;5043544;28;20172;-62
2022/02/01 07:23:20;;;;;;;0.50;0.50;;;;;;;;;;5072082;28;20398;-62
2022/02/01 07:25:47;;;;;;;0.50;0.50;;;;;;;;;;5064030;28;20851;-62
2022/02/01 07:28:13;;;;;;;0.50;0.50;;;;;;;;;;5063007;28;20206;-62
2022/02/01 07:30:39;;;;;;;0.60;0.60;;;;;;;;;;5060164;28;20662;-62
2022/02/01 07:33:05;;;;;;;0.70;0.70;;;;;;;;;;5052824;28;20184;-61
2022/02/01 07:35:31;;;;;;;0.60;0.60;;;;;;;;;;5058830;28;20650;-61
2022/02/01 07:37:59;;;;;;;0.60;0.60;;;;;;;;;;5056886;28;20540;-62
2022/02/01 07:40:25;;;;;;;0.70;0.70;;;;;;;;;;5052561;28;20317;-62
2022/02/01 07:42:51;;;;;;;0.60;0.60;;;;;;;;;;5052637;28;20203;-62
2022/02/01 07:45:19;;;;;;;0.60;0.60;;;;;;;;;;5060135;28;20413;-62
2022/02/01 07:47:45;;;;;;;0.60;0.60;;;;;;;;;;5052508;28;20443;-62
2022/02/01 07:50:11;;;;;;;0.70;0.70;;;;;;;;;;5063867;28;20179;-62
2022/02/01 07:52:37;;;;;;;0.50;0.50;;;;;;;;;;5070875;28;20187;-63
2022/02/01 07:55:04;;;;;;;0.63;0.63;;;;;;;;;;5069711;28;20689;-62
2022/02/01 07:57:30;;;;;;;0.60;0.60;;;;;;;;;;5069422;28;20546;-62
2022/02/01 07:59:56;;;;;;;0.40;0.40;;;;;;;;;;5070474;28;20169;-62
2022/02/01 08:02:24;;;;;;;0.50;0.50;;;;;;;;;;5070987;28;20178;-62
2022/02/01 08:04:53;;;;;;;0.60;0.60;;;;;;;;;;5072223;28;20159;-63
2022/02/01 08:07:22;;;;;;;0.50;0.50;;;;;;;;;;5034047;28;1094445;-63
2022/02/01 08:09:52;;;;;;;0.60;0.60;;;;;;;;;;5072989;28;20205;-62
2022/02/01 08:20:09;;;;;;;0.50;0.50;;;;;;;;;;5072976;28;20175;-63
2022/02/01 08:25:01;;;;;;;0.50;0.50;;;;;;;;;;5059418;28;20665;-62
2022/02/01 08:27:27;;;;;;;0.60;0.60;;;;;;;;;;5052590;28;20445;-62
2022/02/01 08:29:53;;;;;;;0.60;0.60;;;;;;;;;;5052843;28;20457;-60
2022/02/01 08:32:19;;;;;;;0.50;0.50;;;;;;;;;;5052077;28;20185;-62
2022/02/01 08:34:45;;;;;;;0.60;0.60;;;;;;;;;;5052221;28;20899;-62
2022/02/01 08:37:11;;;;;;;0.60;0.60;;;;;;;;;;5052619;28;20550;-63
2022/02/01 08:39:37;;;;;;;0.60;0.60;;;;;;;;;;5052598;28;20405;-62
2022/02/01 08:42:03;;;;;;;0.60;0.60;;;;;;;;;;5052348;28;20474;-62
2022/02/01 08:44:30;;;;;;;0.50;0.50;;;;;;;;;;5051954;28;20177;-62
2022/02/01 08:46:57;;;;;;;0.50;0.50;;;;;;;;;;5051712;28;20221;-62
2022/02/01 08:49:23;;;;;;;0.60;0.60;;;;;;;;;;5052586;28;20176;-63
2022/02/01 08:51:59;;;;;;;0.50;0.50;;;;;;;;;;5052112;28;20270;-62
2022/02/01 08:54:27;;;;;;;0.60;0.60;;;;;;;;;;5052128;28;20603;-62
2022/02/01 08:59:38;;;;;;;0.50;0.50;;;;;;;;;;5051888;28;20188;-63
2022/02/01 09:02:05;;;;;;;0.50;0.50;;;;;;;;;;5051896;28;20184;-62
2022/02/01 09:04:32;;;;;;;0.50;0.50;;;;;;;;;;5052344;28;20172;-62
2022/02/01 09:07:01;;;;;;;0.50;0.50;;;;;;;;;;5052456;28;20299;-62
2022/02/01 09:09:28;;;;;;;0.50;0.50;;;;;;;;;;5052053;28;20533;-62
2022/02/01 09:11:54;;;;;;;0.50;0.50;;;;;;;;;;5051376;28;20175;-63
2022/02/01 09:14:20;;;;;;;0.57;0.57;;;;;;;;;;5051993;28;20181;-63
2022/02/01 09:16:47;;;;;;;0.50;0.50;;;;;;;;;;5051608;28;20780;-62
2022/02/01 09:19:14;;;;;;;0.50;0.50;;;;;;;;;;5052054;28;20189;-62
2022/02/01 09:21:40;;;;;;;0.50;0.50;;;;;;;;;;5051822;28;20170;-61
2022/02/01 09:24:06;;;;;;;0.50;0.50;;;;;;;;;;5051542;28;20541;-62
2022/02/01 09:26:32;;;;;;;0.50;0.50;;;;;;;;;;5034057;28;20336;-64
2022/02/01 09:28:58;;;;;;;0.50;0.50;;;;;;;;;;5051356;28;20627;-62
2022/02/01 09:31:24;;;;;;;0.40;0.40;;;;;;;;;;5051567;28;20401;-62
2022/02/01 09:33:50;;;;;;;0.50;0.50;;;;;;;;;;5051698;28;20241;-62
2022/02/01 09:36:16;;;;;;;0.60;0.60;;;;;;;;;;5033481;28;20437;-62
2022/02/01 09:38:42;;;;;;;0.50;0.50;;;;;;;;;;5051351;28;20461;-62
2022/02/01 09:41:08;;;;;;;0.60;0.60;;;;;;;;;;5051253;28;20224;-62
2022/02/01 09:43:34;;;;;;;0.50;0.50;;;;;;;;;;5051493;28;20416;-62
2022/02/01 09:46:00;;;;;;;0.60;0.60;;;;;;;;;;5051328;28;20197;-62
2022/02/01 09:48:27;;;;;;;0.50;0.50;;;;;;;;;;5051392;28;20227;-62
2022/02/01 09:50:54;;;;;;;0.60;0.60;;;;;;;;;;5051212;28;20181;-62
2022/02/01 09:53:20;;;;;;;0.50;0.50;;;;;;;;;;5051335;28;20227;-62
2022/02/01 09:55:47;;;;;;;0.60;0.60;;;;;;;;;;5051421;28;20318;-62
2022/02/01 09:58:13;;;;;;;0.60;0.60;;;;;;;;;;5051217;28;20306;-62
2022/02/01 10:00:45;;;;;;;0.50;0.50;;;;;;;;;;5055474;28;20175;-62
2022/02/01 10:03:19;;;;;;;0.52;0.52;;;;;;;;;;5055640;28;20174;-62
2022/02/01 10:05:45;;;;;;;0.50;0.50;;;;;;;;;;5055405;28;20566;-62
2022/02/01 10:08:15;;;;;;;0.50;0.50;;;;;;;;;;5055393;28;20214;-62
2022/02/01 10:10:41;;;;;;;0.55;0.55;;;;;;;;;;5055304;28;20253;-62
2022/02/01 10:13:16;;;;;;;0.50;0.50;;;;;;;;;;5055522;28;20747;-62
2022/02/01 10:15:58;;;;;;;0.60;0.60;;;;;;;;;;5054449;28;20193;-62
2022/02/01 10:18:28;;;;;;;0.50;0.50;;;;;;;;;;5054618;28;20202;-62
2022/02/01 10:20:54;;;;;;;0.50;0.50;;;;;;;;;;5054991;28;20214;-62
2022/02/01 10:23:22;;;;;;;0.50;0.50;;;;;;;;;;5055178;28;20180;-62
2022/02/01 10:25:57;;;;;;;0.50;0.50;;;;;;;;;;5055214;28;20175;-62
2022/02/01 10:28:25;;;;;;;0.50;0.50;;;;;;;;;;5055140;28;20198;-62
2022/02/01 10:30:51;;;;;;;0.50;0.50;;;;;;;;;;5055004;28;20275;-62
2022/02/01 10:33:59;;;;;;;0.50;0.50;;;;;;;;;;5055430;28;20178;-62
2022/02/01 10:36:34;;;;;;;0.52;0.52;;;;;;;;;;5054920;28;20199;-62
2022/02/01 10:39:00;;;;;;;0.60;0.60;;;;;;;;;;5054871;28;20193;-62
2022/02/01 10:41:26;;;;;;;0.50;0.50;;;;;;;;;;5054718;28;20549;-62
2022/02/01 10:43:52;;;;;;;0.50;0.50;;;;;;;;;;5055015;28;20830;-62
2022/02/01 10:46:20;;;;;;;0.60;0.60;;;;;;;;;;5054708;28;20425;-62
2022/02/01 10:48:47;;;;;;;0.50;0.50;;;;;;;;;;5056049;28;20170;-62
2022/02/01 10:51:18;;;;;;;0.50;0.50;;;;;;;;;;5074124;28;20547;-62
2022/02/01 10:53:44;;;;;;;0.60;0.60;;;;;;;;;;5073948;28;20181;-62
2022/02/01 10:56:16;;;;;;;0.60;0.60;;;;;;;;;;5074514;28;20644;-62
2022/02/01 10:58:42;;;;;;;0.60;0.60;;;;;;;;;;5074471;28;20256;-62
2022/02/01 11:01:08;;;;;;;0.50;0.50;;;;;;;;;;5074257;28;20170;-62
2022/02/01 11:03:40;;;;;;;0.60;0.60;;;;;;;;;;5074159;28;20400;-62
2022/02/01 11:06:06;;;;;;;0.45;0.45;;;;;;;;;;5073472;28;20175;-62
2022/02/01 11:08:35;;;;;;;0.60;0.60;;;;;;;;;;5074263;28;20177;-62
2022/02/01 11:11:01;;;;;;;0.50;0.50;;;;;;;;;;5073847;28;20767;-62
2022/02/01 11:13:38;;;;;;;0.50;0.50;;;;;;;;;;5074176;28;20303;-62
2022/02/01 11:16:06;;;;;;;0.50;0.50;;;;;;;;;;5073382;28;20177;-62
2022/02/01 11:18:32;;;;;;;0.50;0.50;;;;;;;;;;5074055;28;20201;-62
2022/02/01 11:21:08;;;;;;;0.50;0.50;;;;;;;;;;5073685;28;20682;-62
2022/02/01 11:23:44;;;;;;;0.50;0.50;;;;;;;;;;5074014;28;20174;-62
2022/02/01 11:26:19;;;;;;;0.60;0.60;;;;;;;;;;5055805;28;20169;-62
2022/02/01 11:29:01;;;;;;;0.50;0.50;;;;;;;;;;5073401;28;20211;-62
2022/02/01 11:31:31;;;;;;;0.50;0.50;;;;;;;;;;5074002;28;20181;-62
2022/02/01 11:33:57;;;;;;;0.50;0.50;;;;;;;;;;5063066;28;20676;-62
2022/02/01 11:36:23;;;;;;;0.50;0.50;;;;;;;;;;5053720;28;20201;-62
2022/02/01 11:38:52;;;;;;;0.50;0.50;;;;;;;;;;5053271;28;20206;-62
2022/02/01 11:41:29;;;;;;;0.50;0.50;;;;;;;;;;5053601;28;20167;-62
2022/02/01 11:44:06;;;;;;;0.50;0.50;;;;;;;;;;5035964;28;20175;-62
2022/02/01 11:46:32;;;;;;;0.60;0.60;;;;;;;;;;5053580;28;20205;-62
2022/02/01 11:48:58;;;;;;;0.50;0.50;;;;;;;;;;5053188;28;20182;-62
2022/02/01 11:51:30;;;;;;;0.50;0.50;;;;;;;;;;5052802;28;20439;-62
2022/02/01 11:53:58;;;;;;;0.50;0.50;;;;;;;;;;5053411;28;20687;-61
2022/02/01 11:56:30;;;;;;;0.50;0.50;;;;;;;;;;5053388;28;20221;-61
2022/02/01 11:59:00;;;;;;;0.50;0.50;;;;;;;;;;5053287;28;20599;-61
2022/02/01 12:01:33;;;;;;;0.50;0.50;;;;;;;;;;5052668;28;20192;-62
2022/02/01 12:04:02;;;;;;;0.50;0.50;;;;;;;;;;5053038;28;20169;-62
2022/02/01 12:06:36;;;;;;;0.50;0.50;;;;;;;;;;5053044;28;20615;-62
2022/02/01 12:09:08;;;;;;;0.50;0.50;;;;;;;;;;5053186;28;20176;-62
2022/02/01 12:11:34;;;;;;;0.50;0.50;;;;;;;;;;5052485;28;20667;-62
2022/02/01 12:14:04;;;;;;;0.50;0.50;;;;;;;;;;5052799;28;20189;-62
2022/02/01 12:16:30;;;;;;;0.50;0.50;;;;;;;;;;5034640;28;20438;-62
2022/02/01 12:18:56;;;;;;;0.53;0.53;;;;;;;;;;5052862;28;20200;-62
2022/02/01 12:21:37;;;;;;;0.50;0.50;;;;;;;;;;5051503;28;20423;-61
2022/02/01 12:24:04;;;;;;;0.50;0.50;;;;;;;;;;5052146;28;20403;-61
2022/02/01 12:26:30;;;;;;;0.50;0.50;;;;;;;;;;5053360;28;20600;-61
2022/02/01 12:28:57;;;;;;;0.60;0.60;;;;;;;;;;5052662;28;20201;-61
2022/02/01 12:31:24;;;;;;;0.55;0.55;;;;;;;;;;5052528;28;20412;-61
2022/02/01 12:33:52;;;;;;;0.60;0.60;;;;;;;;;;5052173;28;20259;-61
2022/02/01 12:36:25;;;;;;;0.55;0.55;;;;;;;;;;5052454;28;20254;-61
2022/02/01 12:38:57;;;;;;;0.57;0.57;;;;;;;;;;5052651;28;20208;-62
2022/02/01 12:41:30;;;;;;;0.50;0.50;;;;;;;;;;5051749;28;20174;-61
2022/02/01 12:46:47;;;;;;;0.50;0.50;;;;;;;;;;5021097;28;20201;-61
2022/02/01 12:49:14;;;;;;;0.60;0.60;;;;;;;;;;5052508;28;20539;-62
2022/02/01 12:51:47;;;;;;;0.60;0.60;;;;;;;;;;5052103;28;20265;-61
2022/02/01 12:54:20;;;;;;;0.60;0.60;;;;;;;;;;5052244;28;20178;-61
2022/02/01 12:56:46;;;;;;;0.50;0.50;;;;;;;;;;5052317;28;20691;-62
2022/02/01 12:59:12;;;;;;;0.50;0.50;;;;;;;;;;5052140;28;20206;-61
2022/02/01 13:01:39;;;;;;;0.60;0.60;;;;;;;;;;5051917;28;20250;-61
2022/02/01 13:04:06;;;;;;;0.60;0.60;;;;;;;;;;5052053;28;20178;-62
2022/02/01 13:06:36;;;;;;;0.50;0.50;;;;;;;;;;5051813;28;20259;-61
2022/02/01 13:14:41;;;;;;;0.50;0.50;;;;;;;;;;5052149;28;20220;-61
2022/02/01 13:17:34;;;;;;;0.50;0.50;;;;;;;;;;5051744;28;20198;-62
2022/02/01 13:20:09;;;;;;;0.60;0.60;;;;;;;;;;5053056;28;20266;-61
2022/02/01 13:22:36;;;;;;;0.50;0.50;;;;;;;;;;5071707;28;20706;-61
2022/02/01 13:25:06;;;;;;;0.50;0.50;;;;;;;;;;5071192;28;20173;-62
2022/02/01 13:27:32;;;;;;;0.50;0.50;;;;;;;;;;5071635;28;20836;-62
2022/02/01 13:30:06;;;;;;;0.40;0.40;;;;;;;;;;5071492;28;20259;-62
2022/02/01 13:32:39;;;;;;;0.50;0.50;;;;;;;;;;5071281;28;20176;-61
2022/02/01 13:35:06;;;;;;;0.50;0.50;;;;;;;;;;5071289;28;20199;-62
2022/02/01 13:37:33;;;;;;;0.50;0.50;;;;;;;;;;5071358;28;20313;-62
2022/02/01 13:39:59;;;;;;;0.50;0.50;;;;;;;;;;5071369;28;20214;-62
2022/02/01 13:42:30;;;;;;;0.50;0.50;;;;;;;;;;5071098;28;20175;-62
2022/02/01 13:45:06;;;;;;;0.50;0.50;;;;;;;;;;5071087;28;20197;-62
2022/02/01 13:47:33;;;;;;;0.60;0.60;;;;;;;;;;5070910;28;20214;-62
2022/02/01 13:49:59;;;;;;;0.60;0.60;;;;;;;;;;5071416;28;20188;-62
2022/02/01 13:52:25;;;;;;;0.50;0.50;;;;;;;;;;5071117;28;20282;-62
2022/02/01 13:54:51;;;;;;;0.60;0.60;;;;;;;;;;5071278;28;20632;-62
2022/02/01 13:57:19;;;;;;;0.60;0.60;;;;;;;;;;5070472;28;21041;-62
2022/02/01 13:59:45;;;;;;;0.60;0.60;;;;;;;;;;5071363;28;20181;-62
2022/02/01 14:02:19;;;;;;;0.60;0.60;;;;;;;;;;5071107;28;20168;-62
2022/02/01 14:04:51;;;;;;;0.50;0.50;;;;;;;;;;5071260;28;20558;-62
2022/02/01 14:07:32;;;;;;;0.50;0.50;;;;;;;;;;5070967;28;20215;-62
2022/02/01 14:10:11;;;;;;;0.50;0.50;;;;;;;;;;5070107;28;20181;-62
2022/02/01 14:28:59;;;;;;;0.60;0.60;;;;;;;;;;5070973;28;20228;-62
2022/02/01 14:34:21;;;;;;;0.50;0.50;;;;;;;;;;5071228;28;20674;-62
2022/02/01 14:36:50;;;;;;;0.60;0.60;;;;;;;;;;5070637;28;20291;-61
2022/02/01 14:44:44;;;;;;;0.50;0.50;;;;;;;;;;5071470;28;20554;-62
2022/02/01 14:47:11;;;;;;;0.60;0.60;;;;;;;;;;5074512;28;20198;-62
2022/02/01 14:49:37;;;;;;;0.50;0.50;;;;;;;;;;5074776;28;20187;-62
2022/02/01 14:52:05;;;;;;;0.50;0.50;;;;;;;;;;5074293;28;20250;-62
2022/02/01 14:54:49;;;;;;;0.50;0.50;;;;;;;;;;5074441;28;20168;-62
2022/02/01 15:13:42;;;;;;;0.50;0.50;;;;;;;;;;5074423;28;20653;-62
2022/02/01 15:16:10;;;;;;;0.60;0.60;;;;;;;;;;5073832;28;20190;-61
2022/02/01 15:18:36;;;;;;;0.60;0.60;;;;;;;;;;5073973;28;20190;-62
2022/02/01 15:21:02;;;;;;;0.50;0.50;;;;;;;;;;5073771;28;20260;-62
2022/02/01 15:23:28;;;;;;;0.60;0.60;;;;;;;;;;5073490;28;20177;-62
2022/02/01 15:25:54;;;;;;;0.60;0.60;;;;;;;;;;5073884;28;20245;-62
2022/02/01 15:28:20;;;;;;;0.50;0.50;;;;;;;;;;5073864;28;20406;-62
2022/02/01 15:30:47;;;;;;;0.60;0.60;;;;;;;;;;5073931;28;20168;-61
2022/02/01 15:33:14;;;;;;;0.50;0.50;;;;;;;;;;5073673;28;20229;-60
2022/02/01 15:35:40;;;;;;;0.50;0.50;;;;;;;;;;5055814;28;20171;-62
2022/02/01 15:38:08;;;;;;;0.50;0.50;;;;;;;;;;5073452;28;20217;-61
2022/02/01 15:59:12;;;;;;;0.50;0.50;;;;;;;;;;5072879;28;20179;-62
2022/02/01 16:01:43;;;;;;;0.50;0.50;;;;;;;;;;5072998;28;20206;-61
2022/02/01 16:04:09;;;;;;;0.50;0.50;;;;;;;;;;5073118;28;20201;-62
2022/02/01 16:06:38;;;;;;;0.50;0.50;;;;;;;;;;5072845;28;20699;-62
2022/02/01 16:09:12;;;;;;;0.50;0.50;;;;;;;;;;5072608;28;20183;-62
2022/02/01 16:11:40;;;;;;;0.52;0.52;;;;;;;;;;5072529;28;20179;-62
2022/02/01 16:14:06;;;;;;;0.50;0.50;;;;;;;;;;5055005;28;20175;-62
2022/02/01 16:16:32;;;;;;;0.50;0.50;;;;;;;;;;5072986;28;20197;-62
2022/02/01 16:18:58;;;;;;;0.50;0.50;;;;;;;;;;5072428;28;20862;-62
2022/02/01 16:21:24;;;;;;;0.50;0.50;;;;;;;;;;5072373;28;20909;-62
2022/02/01 16:23:50;;;;;;;0.50;0.50;;;;;;;;;;5072764;28;20441;-62
2022/02/01 16:26:16;;;;;;;0.60;0.60;;;;;;;;;;5072723;28;20432;-62
2022/02/01 16:28:42;;;;;;;0.60;0.60;;;;;;;;;;5072824;28;20439;-62
2022/02/01 16:31:07;;;;;;;0.65;0.65;;;;;;;;;;5071973;28;20459;-62
2022/02/01 16:33:33;;;;;;;0.50;0.50;;;;;;;;;;5072684;28;20183;-62
2022/02/01 16:35:59;;;;;;;0.50;0.50;;;;;;;;;;5072194;28;20647;-62
2022/02/01 16:38:25;;;;;;;0.50;0.50;;;;;;;;;;5072522;28;20823;-62
2022/02/01 16:40:52;;;;;;;0.53;0.53;;;;;;;;;;5072451;28;20765;-62
2022/02/01 16:43:19;;;;;;;0.50;0.50;;;;;;;;;;5072274;28;20413;-62
2022/02/01 16:45:46;;;;;;;0.50;0.50;;;;;;;;;;5072527;28;20191;-62
2022/02/01 16:48:15;;;;;;;0.50;0.50;;;;;;;;;;5066079;28;20207;-62
2022/02/01 16:50:41;;;;;;;0.50;0.50;;;;;;;;;;5052279;28;20166;-62
2022/02/01 16:53:53;;;;;;;0.50;0.50;;;;;;;;;;5051885;28;20178;-62
2022/02/01 16:58:29;;;;;;;0.60;0.60;;;;;;;;;;5052174;28;20209;-62
2022/02/01 17:00:56;;;;;;;0.60;0.60;;;;;;;;;;5051902;28;20920;-62
2022/02/01 17:03:22;;;;;;;0.60;0.60;;;;;;;;;;5052025;28;20164;-62
2022/02/01 17:05:52;;;;;;;0.60;0.60;;;;;;;;;;5051814;28;20169;-62
2022/02/01 17:08:18;;;;;;;0.57;0.57;;;;;;;;;;5051870;28;20575;-62
2022/02/01 17:10:48;;;;;;;0.60;0.60;;;;;;;;;;5051935;28;20171;-62
2022/02/01 17:13:37;;;;;;;0.60;0.60;;;;;;;;;;5052028;28;20181;-62
2022/02/01 17:23:43;;;;;;;0.60;0.60;;;;;;;;;;5059418;28;20183;-62
2022/02/01 17:26:09;;;;;;;0.60;0.60;;;;;;;;;;5064469;28;20181;-62
2022/02/01 17:28:35;;;;;;;0.60;0.60;;;;;;;;;;5071571;28;20437;-62
2022/02/01 17:31:00;;;;;;;0.50;0.50;;;;;;;;;;5071625;28;20177;-62
2022/02/01 17:33:26;;;;;;;0.50;0.50;;;;;;;;;;5065672;28;20414;-62
2022/02/01 17:35:52;;;;;;;0.57;0.57;;;;;;;;;;5060555;28;20828;-62
2022/02/01 17:38:18;;;;;;;0.50;0.50;;;;;;;;;;5068772;28;20856;-62
2022/02/01 17:40:45;;;;;;;0.50;0.50;;;;;;;;;;5055234;28;20942;-62